Hoegh Africa — C6TD3 — position and weather

sailwx.info

Track history (hours):
 
Tides and Currents Weather Stations Pressure Air Temp Water Temp Dewpoint Dewpoint Depression Visibility Wind Speed Wind Dir Waves Ship Positions

Hoegh Africa

Last reported at 2017-Sep-12 11:47 UTC. Time now 2017-Sep-24 04:56 UTC.
Position N 01°19' E 103°19'.
Warning: this ship's position is 11 days out of date.

Length 200 m; draft 9.1 m.

Type: Cargo ship. MMSI: 311594000.

Date/timePositionNaut miles runAvg speedWind from/ knotsBaromVisibWave heightAir tempDewpointWater temp
2017-Sep-12 11:47N 01°19' E 103°19'415.8
2017-Sep-12 11:30N 01°16' E 103°23'815.2
2017-Sep-12 10:59N 01°14' E 103°30'815.7
2017-Sep-12 10:30N 01°11' E 103°37'714.0
2017-Sep-12 09:59N 01°09' E 103°44'613.2
2017-Sep-12 09:30N 01°11' E 103°50'713.3
2017-Sep-12 09:00N 01°14' E 103°56'3 6.5
2017-Sep-12 08:30N 01°17' E 103°58'0 0.1
2017-Sep-12 07:12N 01°17' E 103°58'0 0.0
2017-Sep-12 06:54N 01°17' E 103°58'0 0.0
2017-Sep-12 06:12N 01°17' E 103°58'0 0.0
2017-Sep-12 06:01N 01°17' E 103°58'0 0.0
2017-Sep-12 05:24N 01°17' E 103°58'0 0.0
2017-Sep-12 04:09N 01°17' E 103°58'0 0.0
2017-Sep-12 03:54N 01°17' E 103°58'0 0.0
2017-Sep-12 03:18N 01°17' E 103°58'0 0.0
2017-Sep-11 23:21N 01°17' E 103°58'0 0.0
2017-Sep-11 22:54N 01°17' E 103°58'0 0.0
2017-Sep-11 22:21N 01°17' E 103°58'1 3.1
2017-Sep-11 22:01N 01°16' E 103°58'1 2.0
2017-Sep-11 21:30N 01°16' E 103°59'4 7.3
2017-Sep-11 20:59N 01°16' E 104°03'  
2017-Sep-06 20:12N 31°05' E 122°33'316.7
2017-Sep-06 20:00N 31°05' E 122°29'511.0
2017-Sep-06 19:30N 31°06' E 122°23'612.8
2017-Sep-06 19:00N 31°08' E 122°16'713.5
2017-Sep-06 18:30N 31°12' E 122°09'713.2
2017-Sep-06 18:01N 31°14' E 122°02'714.9
2017-Sep-06 17:31N 31°16' E 121°54'713.1
2017-Sep-06 17:00N 31°18' E 121°47'5 9.4
2017-Sep-06 16:30N 31°19' E 121°41'0 0.6
2017-Sep-06 16:00N 31°19' E 121°41'0 0.0
2017-Sep-06 15:30N 31°19' E 121°41'0 0.0
2017-Sep-06 15:00N 31°19' E 121°41'0 0.0
2017-Sep-06 14:30N 31°19' E 121°41'0 0.0
2017-Sep-06 14:00N 31°19' E 121°41'0 0.0
2017-Sep-06 13:30N 31°19' E 121°41'0 0.0
2017-Sep-06 12:52N 31°19' E 121°41'0 0.0
2017-Sep-06 12:30N 31°19' E 121°41'0 0.0
2017-Sep-06 12:00N 31°19' E 121°41'0 0.0
2017-Sep-06 11:30N 31°19' E 121°41'0 0.0
2017-Sep-06 11:00N 31°19' E 121°41'0 0.0
2017-Sep-06 10:30N 31°19' E 121°41'0 0.0
2017-Sep-06 10:00N 31°19' E 121°41'0 0.0
2017-Sep-06 09:30N 31°19' E 121°41'0 0.0
2017-Sep-06 09:00N 31°19' E 121°41'0 0.0
2017-Sep-06 08:30N 31°19' E 121°41'0 0.0
2017-Sep-06 08:00N 31°19' E 121°41'0 0.0
2017-Sep-06 07:31N 31°19' E 121°41'0 0.0
2017-Sep-06 07:00N 31°19' E 121°41'0 0.0
2017-Sep-06 06:30N 31°19' E 121°41'0 0.0
2017-Sep-06 06:00N 31°19' E 121°41'0 0.0
2017-Sep-06 05:30N 31°19' E 121°41'0 0.6
2017-Sep-06 05:00N 31°20' E 121°41'2 3.5
2017-Sep-06 04:30N 31°19' E 121°43'612.0
2017-Sep-06 04:00N 31°17' E 121°50'5 9.1
2017-Sep-06 03:30N 31°16' E 121°55'510.9
2017-Sep-06 03:00N 31°15' E 122°01'510.9
2017-Sep-06 02:30N 31°13' E 122°07'510.5
2017-Sep-06 02:00N 31°10' E 122°12'5 9.8
2017-Sep-06 01:30N 31°07' E 122°17'4 8.2
2017-Sep-06 01:00N 31°06' E 122°21'4 8.0
2017-Sep-06 00:30N 31°07' E 122°26'3 6.7
2017-Sep-06 00:00N 31°07' E 122°30'3 6.3
2017-Sep-05 23:30N 31°07' E 122°33'3 6.5
2017-Sep-05 23:00N 31°07' E 122°37'3 6.9
2017-Sep-05 22:30N 31°06' E 122°41'4 8.3
2017-Sep-05 22:00N 31°06' E 122°46'4 7.0
2017-Sep-05 21:22N 31°06' E 122°51'3 8.0
2017-Sep-05 21:00N 31°06' E 122°55'7 8.5
2017-Sep-05 20:08N 31°09' E 123°03'1 8.8
2017-Sep-05 20:00N 31°09' E 123°04'20 9.0
2017-Sep-05 17:44N 31°20' E 123°24'311.5
2017-Sep-05 17:26N 31°22' E 123°28'711.2
2017-Sep-05 16:47N 31°25' E 123°35'310.0
2017-Sep-05 16:30N 31°26' E 123°39'510.1
2017-Sep-05 16:00N 31°28' E 123°44'  
Track history (hours):
 
Tides and Currents Weather Stations Pressure Air Temp Water Temp Dewpoint Dewpoint Depression Visibility Wind Speed Wind Dir Waves Ship Positions

Hoegh Africa

Last reported at 2017-Sep-12 11:47 UTC. Time now 2017-Sep-24 04:56 UTC.
Position N 01°19' E 103°19'.
Warning: this ship's position is 11 days out of date.

Length 200 m; draft 9.1 m.

Type: Cargo ship. MMSI: 311594000.

Date/timePositionNaut miles runAvg speedWind from/ knotsBaromVisibWave heightAir tempDewpointWater temp
2017-Sep-12 11:47N 01°19' E 103°19'415.8
2017-Sep-12 11:30N 01°16' E 103°23'815.2
2017-Sep-12 10:59N 01°14' E 103°30'815.7
2017-Sep-12 10:30N 01°11' E 103°37'714.0
2017-Sep-12 09:59N 01°09' E 103°44'613.2
2017-Sep-12 09:30N 01°11' E 103°50'713.3
2017-Sep-12 09:00N 01°14' E 103°56'3 6.5
2017-Sep-12 08:30N 01°17' E 103°58'0 0.1
2017-Sep-12 07:12N 01°17' E 103°58'0 0.0
2017-Sep-12 06:54N 01°17' E 103°58'0 0.0
2017-Sep-12 06:12N 01°17' E 103°58'0 0.0
2017-Sep-12 06:01N 01°17' E 103°58'0 0.0
2017-Sep-12 05:24N 01°17' E 103°58'0 0.0
2017-Sep-12 04:09N 01°17' E 103°58'0 0.0
2017-Sep-12 03:54N 01°17' E 103°58'0 0.0
2017-Sep-12 03:18N 01°17' E 103°58'0 0.0
2017-Sep-11 23:21N 01°17' E 103°58'0 0.0
2017-Sep-11 22:54N 01°17' E 103°58'0 0.0
2017-Sep-11 22:21N 01°17' E 103°58'1 3.1
2017-Sep-11 22:01N 01°16' E 103°58'1 2.0
2017-Sep-11 21:30N 01°16' E 103°59'4 7.3
2017-Sep-11 20:59N 01°16' E 104°03'  
2017-Sep-06 20:12N 31°05' E 122°33'316.7
2017-Sep-06 20:00N 31°05' E 122°29'511.0
2017-Sep-06 19:30N 31°06' E 122°23'612.8
2017-Sep-06 19:00N 31°08' E 122°16'713.5
2017-Sep-06 18:30N 31°12' E 122°09'713.2
2017-Sep-06 18:01N 31°14' E 122°02'714.9
2017-Sep-06 17:31N 31°16' E 121°54'713.1
2017-Sep-06 17:00N 31°18' E 121°47'5 9.4
2017-Sep-06 16:30N 31°19' E 121°41'0 0.6
2017-Sep-06 16:00N 31°19' E 121°41'0 0.0
2017-Sep-06 15:30N 31°19' E 121°41'0 0.0
2017-Sep-06 15:00N 31°19' E 121°41'0 0.0
2017-Sep-06 14:30N 31°19' E 121°41'0 0.0
2017-Sep-06 14:00N 31°19' E 121°41'0 0.0
2017-Sep-06 13:30N 31°19' E 121°41'0 0.0
2017-Sep-06 12:52N 31°19' E 121°41'0 0.0
2017-Sep-06 12:30N 31°19' E 121°41'0 0.0
2017-Sep-06 12:00N 31°19' E 121°41'0 0.0
2017-Sep-06 11:30N 31°19' E 121°41'0 0.0
2017-Sep-06 11:00N 31°19' E 121°41'0 0.0
2017-Sep-06 10:30N 31°19' E 121°41'0 0.0
2017-Sep-06 10:00N 31°19' E 121°41'0 0.0
2017-Sep-06 09:30N 31°19' E 121°41'0 0.0
2017-Sep-06 09:00N 31°19' E 121°41'0 0.0
2017-Sep-06 08:30N 31°19' E 121°41'0 0.0
2017-Sep-06 08:00N 31°19' E 121°41'0 0.0
2017-Sep-06 07:31N 31°19' E 121°41'0 0.0
2017-Sep-06 07:00N 31°19' E 121°41'0 0.0
2017-Sep-06 06:30N 31°19' E 121°41'0 0.0
2017-Sep-06 06:00N 31°19' E 121°41'0 0.0
2017-Sep-06 05:30N 31°19' E 121°41'0 0.6
2017-Sep-06 05:00N 31°20' E 121°41'2 3.5
2017-Sep-06 04:30N 31°19' E 121°43'612.0
2017-Sep-06 04:00N 31°17' E 121°50'5 9.1
2017-Sep-06 03:30N 31°16' E 121°55'510.9
2017-Sep-06 03:00N 31°15' E 122°01'510.9
2017-Sep-06 02:30N 31°13' E 122°07'510.5
2017-Sep-06 02:00N 31°10' E 122°12'5 9.8
2017-Sep-06 01:30N 31°07' E 122°17'4 8.2
2017-Sep-06 01:00N 31°06' E 122°21'4 8.0
2017-Sep-06 00:30N 31°07' E 122°26'3 6.7
2017-Sep-06 00:00N 31°07' E 122°30'3 6.3
2017-Sep-05 23:30N 31°07' E 122°33'3 6.5
2017-Sep-05 23:00N 31°07' E 122°37'3 6.9
2017-Sep-05 22:30N 31°06' E 122°41'4 8.3
2017-Sep-05 22:00N 31°06' E 122°46'4 7.0
2017-Sep-05 21:22N 31°06' E 122°51'3 8.0
2017-Sep-05 21:00N 31°06' E 122°55'7 8.5
2017-Sep-05 20:08N 31°09' E 123°03'1 8.8
2017-Sep-05 20:00N 31°09' E 123°04'20 9.0
2017-Sep-05 17:44N 31°20' E 123°24'311.5
2017-Sep-05 17:26N 31°22' E 123°28'711.2
2017-Sep-05 16:47N 31°25' E 123°35'310.0
2017-Sep-05 16:30N 31°26' E 123°39'510.1
2017-Sep-05 16:00N 31°28' E 123°44'  

Dump ship's entire track history